Date,TemperatureHighF,TemperatureAvgF,TemperatureLowF,DewpointHighF,DewpointAvgF,DewpointLowF,HumidityHigh,HumidityAvg,HumidityLow,PressureMaxIn,PressureMinIn,WindSpeedMaxMPH,WindSpeedAvgMPH,GustSpeedMaxMPH,PrecipitationSumIn
2013-1-1,35,33,27,-100,-100,-100,0,0,100,0.00,40.00,0,-999,0,0.00
2013-1-2,41,29,23,-100,-100,-100,0,0,100,0.00,40.00,0,-999,0,0.00
2013-1-3,46,30,22,-100,-100,-100,0,0,100,0.00,40.00,0,-999,0,0.00
2013-1-4,46,32,23,-100,-100,-100,0,0,100,0.00,40.00,0,-999,0,0.00
2013-1-5,48,37,27,-100,-100,-100,0,0,100,0.00,40.00,0,-999,0,0.00
2013-1-6,42,35,27,-100,-100,-100,0,0,100,0.00,40.00,0,-999,0,0.00
2013-1-7,46,32,23,-100,-100,-100,0,0,100,0.00,40.00,0,-999,0,0.00
2013-1-8,55,37,27,-100,-100,-100,0,0,100,0.00,40.00,0,-999,0,0.00
2013-1-9,55,47,42,-100,-100,-100,0,0,100,0.00,40.00,0,-999,0,0.00
2013-1-10,57,48,41,-100,-100,-100,0,0,100,0.00,40.00,0,-999,0,0.00
2013-1-11,60,51,44,-100,-100,-100,0,0,100,0.00,40.00,0,-999,0,0.00
2013-1-12,57,50,42,-100,-100,-100,0,0,100,0.00,40.00,0,-999,0,0.00
2013-1-13,39,33,25,-100,-100,-100,0,0,100,0.00,40.00,0,-999,0,0.00
2013-1-14,31,26,23,-100,-100,-100,0,0,100,0.00,40.00,0,-999,0,0.00
2013-1-15,32,29,23,-100,-100,-100,0,0,100,0.00,40.00,0,-999,0,0.00
2013-1-16,44,33,25,-100,-100,-100,0,0,100,0.00,40.00,0,-999,0,0.00
2013-1-17,42,34,25,-100,-100,-100,0,0,100,0.00,40.00,0,-999,0,0.00
2013-1-18,48,34,23,-100,-100,-100,0,0,100,0.00,40.00,0,-999,0,0.00
2013-1-19,53,40,31,-100,-100,-100,0,0,100,0.00,40.00,0,-999,0,0.00
2013-1-20,48,38,32,-100,-100,-100,0,0,100,0.00,40.00,0,-999,0,0.00
2013-1-21,39,32,27,-100,-100,-100,0,0,100,0.00,40.00,0,-999,0,0.00
2013-1-22,39,28,22,-100,-100,-100,0,0,100,0.00,40.00,0,-999,0,0.00
2013-1-23,50,33,22,-100,-100,-100,0,0,100,0.00,40.00,0,-999,0,0.00
2013-1-24,33,31,25,-100,-100,-100,0,0,100,0.00,40.00,0,-999,0,0.00
2013-1-25,51,35,31,-100,-100,-100,0,0,100,0.00,40.00,0,-999,0,0.00
2013-1-26,50,37,29,-100,-100,-100,0,0,100,0.00,40.00,0,-999,0,0.00
2013-1-27,50,40,32,-100,-100,-100,0,0,100,0.00,40.00,0,-999,0,0.00
2013-1-28,64,56,48,-100,-100,-100,0,0,100,0.00,40.00,0,-999,0,0.00
2013-1-29,69,60,50,-100,-100,-100,0,0,100,0.00,40.00,0,-999,0,0.00
2013-1-30,51,43,33,-100,-100,-100,0,0,100,0.00,40.00,0,-999,0,0.00
2013-1-31,48,37,27,-100,-100,-100,0,0,100,0.00,40.00,0,-999,0,0.00